Time;durP1;ratioP1;P1;durP2;ratioP2;P2;SDS_P1;SDS_P2;PMS_P1;PMS_P2;Temp;Humidity;BMP_temperature;BMP_pressure;BME280_temperature;BME280_humidity;BME280_pressure;Samples;Min_cycle;Max_cycle;Signal;HPM_P1;HPM_P2
2021/12/03 00:01:56;;;;;;;;;5.00;5.00;;;;;2.05;75.47;98791.63;5034059;28;45613;-74
2021/12/03 00:04:22;;;;;;;;;2.00;2.00;;;;;2.08;74.69;98782.06;5033288;28;45366;-74
2021/12/03 00:06:48;;;;;;;;;1.00;1.00;;;;;2.10;75.31;98771.63;5033271;28;46980;-74
2021/12/03 00:09:13;;;;;;;;;2.00;2.00;;;;;2.10;74.37;98792.44;5031321;28;45579;-74
2021/12/03 00:11:39;;;;;;;;;4.33;2.33;;;;;2.11;75.93;98773.34;5034711;28;45485;-73
2021/12/03 00:14:04;;;;;;;;;2.33;1.00;;;;;2.09;76.04;98788.97;5033256;28;45442;-73
2021/12/03 00:16:30;;;;;;;;;1.67;1.67;;;;;2.10;73.01;98793.28;5034847;28;46319;-73
2021/12/03 00:18:55;;;;;;;;;1.00;1.00;;;;;2.14;74.91;98811.47;5031074;28;45483;-73
2021/12/03 00:21:22;;;;;;;;;5.00;2.00;;;;;2.18;72.77;98802.75;5034516;28;45405;-74
2021/12/03 00:23:48;;;;;;;;;1.00;1.00;;;;;2.16;75.77;98800.19;5033118;28;45393;-73
2021/12/03 00:26:13;;;;;;;;;2.00;2.00;;;;;2.16;74.22;98796.72;5032244;28;46268;-74
2021/12/03 00:28:39;;;;;;;;;4.33;4.33;;;;;2.14;74.57;98814.06;5032767;28;45608;-74
2021/12/03 00:31:06;;;;;;;;;2.00;0.33;;;;;2.10;74.26;98813.25;5034396;28;45518;-73
2021/12/03 00:33:32;;;;;;;;;4.33;2.33;;;;;2.12;75.63;98808.03;5033635;28;45476;-74
2021/12/03 00:36:03;;;;;;;;;2.67;2.33;;;;;2.14;74.41;98814.94;5028620;28;46034;-74
2021/12/03 00:38:30;;;;;;;;;1.00;1.00;;;;;2.17;74.19;98817.50;5034219;28;45378;-74
2021/12/03 00:40:56;;;;;;;;;2.00;2.00;;;;;2.20;73.75;98855.59;5030547;28;45428;-74
2021/12/03 00:43:21;;;;;;;;;1.00;1.00;;;;;2.22;70.53;98841.69;5034634;28;45460;-74
2021/12/03 00:45:47;;;;;;;;;2.00;2.00;;;;;2.33;69.26;98871.06;5029912;28;46323;-74
2021/12/03 00:48:13;;;;;;;;;0.67;0.67;;;;;2.38;68.50;98873.59;5033773;28;45342;-74
2021/12/03 00:50:39;;;;;;;;;2.00;0.67;;;;;2.40;70.42;98851.03;5045810;28;45582;-74
2021/12/03 00:53:04;;;;;;;;;3.67;3.00;;;;;2.35;71.21;98850.22;5034548;28;45739;-74
2021/12/03 00:55:31;;;;;;;;;1.33;1.33;;;;;2.31;70.54;98858.94;5032104;28;45519;-74
2021/12/03 00:57:57;;;;;;;;;2.00;2.00;;;;;2.31;70.20;98861.56;5034564;28;45321;-74
2021/12/03 01:00:25;;;;;;;;;3.67;3.67;;;;;2.27;71.40;98865.91;5031263;28;45441;-74
2021/12/03 01:02:53;;;;;;;;;5.00;4.33;;;;;2.23;68.42;98881.56;5065796;28;45578;-74
2021/12/03 01:05:19;;;;;;;;;3.33;2.67;;;;;2.22;70.75;98861.63;5032046;28;46223;-74
2021/12/03 01:07:44;;;;;;;;;2.00;2.00;;;;;2.19;70.32;98865.13;5034272;28;45383;-74
2021/12/03 01:10:09;;;;;;;;;6.33;5.00;;;;;2.19;71.97;98878.13;5030135;28;45423;-74
2021/12/03 01:12:37;;;;;;;;;2.67;2.67;;;;;2.19;72.87;98887.66;5027236;28;45512;-74
2021/12/03 01:15:08;;;;;;;;;5.00;2.33;;;;;2.18;70.62;98886.81;5021414;28;45529;-74
2021/12/03 01:17:34;;;;;;;;;3.33;3.33;;;;;2.18;71.33;98883.38;5034053;28;45412;-74
2021/12/03 01:20:04;;;;;;;;;2.00;2.00;;;;;2.20;70.05;98889.38;5027211;28;45592;-74
2021/12/03 01:22:29;;;;;;;;;6.33;5.00;;;;;2.21;70.59;98891.97;5033435;28;45503;-74
2021/12/03 01:24:55;;;;;;;;;3.00;2.00;;;;;2.22;67.73;98887.63;5027433;28;46605;-75
2021/12/03 01:27:20;;;;;;;;;5.00;2.67;;;;;2.22;68.93;98890.25;5049170;28;45437;-75
2021/12/03 01:29:46;;;;;;;;;5.00;3.00;;;;;2.20;69.36;98900.66;5031708;28;45521;-74
2021/12/03 01:32:11;;;;;;;;;1.00;1.00;;;;;2.22;68.84;98921.44;5033956;28;45425;-74
2021/12/03 01:34:37;;;;;;;;;3.00;3.00;;;;;2.20;69.13;98911.06;5026085;28;48267;-74
2021/12/03 01:37:03;;;;;;;;;0.00;0.00;;;;;2.17;69.19;98921.53;5033817;28;45560;-74
2021/12/03 01:39:28;;;;;;;;;5.67;3.00;;;;;2.18;70.18;98919.78;5029571;28;45432;-74
2021/12/03 01:41:54;;;;;;;;;2.33;2.33;;;;;2.18;70.32;98920.59;5028891;28;45392;-74
2021/12/03 01:44:19;;;;;;;;;2.00;2.00;;;;;2.19;70.13;98934.47;5044734;28;48298;-75
2021/12/03 01:46:45;;;;;;;;;2.00;1.00;;;;;2.19;69.19;98919.72;5031793;28;45353;-74
2021/12/03 01:49:12;;;;;;;;;1.00;1.00;;;;;2.20;70.54;98918.00;5029944;28;45505;-74
2021/12/03 01:51:37;;;;;;;;;3.00;2.00;;;;;2.22;69.86;98924.03;5031458;28;45434;-74
2021/12/03 01:54:03;;;;;;;;;1.00;1.00;;;;;2.22;69.34;98924.91;5029696;28;46039;-74
2021/12/03 01:56:28;;;;;;;;;2.00;2.00;;;;;2.22;70.04;98930.13;5023909;28;45347;-74
2021/12/03 01:58:54;;;;;;;;;2.33;2.33;;;;;2.23;70.41;98930.97;5032061;28;45432;-74
2021/12/03 02:01:23;;;;;;;;;4.33;2.00;;;;;2.23;70.70;98929.25;5024990;28;45475;-74
2021/12/03 02:03:52;;;;;;;;;3.33;3.00;;;;;2.22;67.81;98922.31;5031870;28;45418;-73
2021/12/03 02:06:18;;;;;;;;;2.00;1.00;;;;;2.25;71.52;98924.88;5027488;28;45556;-74
2021/12/03 02:08:44;;;;;;;;;2.00;2.00;;;;;2.25;69.90;98911.03;5028502;28;45367;-74
2021/12/03 02:11:11;;;;;;;;;3.00;0.33;;;;;2.25;70.86;98909.28;5028976;28;45507;-74
2021/12/03 02:13:37;;;;;;;;;0.00;0.00;;;;;2.23;68.88;98912.78;5031328;28;48352;-74
2021/12/03 02:16:04;;;;;;;;;1.00;1.00;;;;;2.21;69.59;98917.97;5024564;28;45861;-74
2021/12/03 02:18:29;;;;;;;;;1.33;1.00;;;;;2.22;69.85;98905.84;5033139;28;45455;-74
2021/12/03 02:20:58;;;;;;;;;2.00;2.00;;;;;2.23;69.75;98911.03;5027420;28;45615;-74
2021/12/03 02:23:26;;;;;;;;;2.00;1.00;;;;;2.23;68.12;98897.16;5031627;28;48089;-74
2021/12/03 02:25:52;;;;;;;;;2.00;1.00;;;;;2.25;71.40;98909.28;5027300;28;45390;-74
2021/12/03 02:28:21;;;;;;;;;2.00;2.00;;;;;2.27;69.40;98901.47;5033543;28;45488;-74
2021/12/03 02:30:48;;;;;;;;;0.33;0.33;;;;;2.28;71.63;98900.59;5046674;28;45593;-74
2021/12/03 02:33:14;;;;;;;;;1.00;1.00;;;;;2.30;69.99;98901.44;5034293;28;45374;-74
2021/12/03 02:35:40;;;;;;;;;1.00;1.00;;;;;2.28;70.60;98900.59;5030116;28;45583;-74
2021/12/03 02:38:07;;;;;;;;;3.33;1.00;;;;;2.28;70.72;98900.59;5036975;28;45463;-74
2021/12/03 02:40:33;;;;;;;;;2.00;1.33;;;;;2.27;70.08;98898.88;5032034;28;45437;-74
2021/12/03 02:42:59;;;;;;;;;1.00;1.00;;;;;2.25;71.74;98901.47;5032563;28;45927;-75
2021/12/03 02:45:24;;;;;;;;;0.67;0.00;;;;;2.19;68.79;98891.13;5032004;28;45757;-74
2021/12/03 02:47:49;;;;;;;;;0.00;0.00;;;;;2.18;70.34;98902.41;5034499;28;45440;-75
2021/12/03 02:50:17;;;;;;;;;1.67;1.00;;;;;2.17;68.91;98907.66;5032531;28;45585;-75
2021/12/03 02:52:44;;;;;;;;;2.33;1.00;;;;;2.13;69.51;98917.22;5034634;28;45671;-74
2021/12/03 02:55:10;;;;;;;;;2.00;1.67;;;;;2.15;70.45;98918.06;5033911;28;45552;-74
2021/12/03 02:57:36;;;;;;;;;2.00;2.00;;;;;2.14;70.26;98923.28;5035857;28;45439;-74
2021/12/03 03:00:04;;;;;;;;;1.67;1.67;;;;;2.10;71.75;98912.91;5030344;28;45578;-74
2021/12/03 03:02:29;;;;;;;;;3.00;3.00;;;;;2.08;71.78;98903.38;5033190;28;46316;-74
2021/12/03 03:04:55;;;;;;;;;2.33;2.00;;;;;2.06;72.40;98906.00;5030595;28;45394;-74
2021/12/03 03:07:21;;;;;;;;;2.00;2.00;;;;;2.04;71.86;98906.88;5033249;28;45341;-73
2021/12/03 03:09:46;;;;;;;;;1.67;1.67;;;;;1.98;72.00;98913.03;5031080;28;45713;-74
2021/12/03 03:12:13;;;;;;;;;1.00;1.00;;;;;1.92;70.08;98907.88;5036079;28;45475;-74
2021/12/03 03:14:44;;;;;;;;;2.00;2.00;;;;;1.90;71.15;98913.94;5030246;28;45529;-73
2021/12/03 03:17:10;;;;;;;;;3.00;2.00;;;;;1.88;70.88;98911.38;5035935;28;45337;-74
2021/12/03 03:19:35;;;;;;;;;1.67;1.67;;;;;1.87;70.93;98921.78;5029930;28;45397;-74
2021/12/03 03:22:01;;;;;;;;;1.67;1.67;;;;;1.82;69.55;98915.78;5035238;28;45795;-74
2021/12/03 03:24:27;;;;;;;;;0.67;0.67;;;;;1.79;71.23;98921.84;5028323;28;45331;-74
2021/12/03 03:26:52;;;;;;;;;2.00;1.00;;;;;1.77;71.88;98920.13;5035521;28;45421;-73
2021/12/03 03:29:18;;;;;;;;;1.00;1.00;;;;;1.73;70.46;98920.16;5049237;28;45501;-73
2021/12/03 03:31:44;;;;;;;;;3.67;2.00;;;;;1.69;70.72;98934.03;5034504;28;47375;-74
2021/12/03 03:34:09;;;;;;;;;1.33;1.33;;;;;1.68;71.40;98939.25;5032522;28;45180;-73
2021/12/03 03:36:37;;;;;;;;;2.00;1.00;;;;;1.66;71.17;98938.41;5029058;28;45388;-73
2021/12/03 03:39:07;;;;;;;;;1.00;1.00;;;;;1.64;71.06;98941.03;5048672;28;45972;-73
2021/12/03 03:41:33;;;;;;;;;1.00;1.00;;;;;1.62;72.26;98947.97;5030816;28;45543;-74
2021/12/03 03:43:59;;;;;;;;;1.00;1.00;;;;;1.61;69.07;98938.44;5034046;28;45496;-74
2021/12/03 03:46:25;;;;;;;;;2.00;1.67;;;;;1.62;70.91;98944.50;5030959;28;45381;-74
2021/12/03 03:48:51;;;;;;;;;3.00;2.00;;;;;1.61;70.97;98954.03;5033902;28;45620;-74
2021/12/03 03:51:17;;;;;;;;;0.33;0.33;;;;;1.62;70.91;98955.75;5032658;28;45995;-73
2021/12/03 03:53:42;;;;;;;;;1.00;1.00;;;;;1.65;70.62;98944.50;5034163;28;45480;-74
2021/12/03 03:56:09;;;;;;;;;2.33;2.33;;;;;1.68;70.70;98947.91;5026979;28;45408;-74
2021/12/03 03:58:37;;;;;;;;;1.67;1.67;;;;;1.69;69.03;98940.97;5034897;28;45483;-74
2021/12/03 04:01:04;;;;;;;;;6.00;2.00;;;;;1.72;68.86;98952.22;5026888;28;46506;-74
2021/12/03 04:03:30;;;;;;;;;2.33;1.00;;;;;1.74;70.72;98944.41;5034861;28;45287;-74
2021/12/03 04:05:56;;;;;;;;;2.00;1.00;;;;;1.75;70.09;98941.78;5029563;28;45511;-74
2021/12/03 04:08:22;;;;;;;;;1.00;1.00;;;;;1.79;70.05;98944.38;5035784;28;45592;-74
2021/12/03 04:10:48;;;;;;;;;1.00;1.00;;;;;1.81;70.72;98937.44;5026506;28;46057;-73
2021/12/03 04:13:14;;;;;;;;;2.00;1.00;;;;;1.81;69.38;98940.03;5035383;28;45510;-73
2021/12/03 04:15:42;;;;;;;;;0.67;0.67;;;;;1.83;66.77;98935.69;5029182;28;45475;-74
2021/12/03 04:18:07;;;;;;;;;1.33;0.00;;;;;1.85;66.29;98947.78;5035734;28;45587;-74
2021/12/03 04:20:33;;;;;;;;;2.33;2.00;;;;;1.87;68.13;98958.16;5028243;28;46331;-74
2021/12/03 04:22:58;;;;;;;;;1.00;1.00;;;;;1.88;68.86;98958.16;5034014;28;46009;-73
2021/12/03 04:25:24;;;;;;;;;2.00;0.00;;;;;1.87;68.13;98964.22;5028943;28;45480;-74
2021/12/03 04:27:51;;;;;;;;;1.67;1.67;;;;;1.87;63.69;98976.34;5035303;28;45394;-74
2021/12/03 04:30:27;;;;;;;;;0.33;0.33;;;;;1.91;65.45;98970.25;5028583;28;47013;-73
2021/12/03 04:32:54;;;;;;;;;1.33;1.33;;;;;1.91;66.08;98965.94;5033866;28;45475;-74
2021/12/03 04:35:19;;;;;;;;;0.00;0.00;;;;;1.92;66.02;98972.84;5028215;28;45413;-74
2021/12/03 04:37:45;;;;;;;;;3.33;3.33;;;;;1.91;65.35;98968.53;5034830;28;45444;-73
2021/12/03 04:40:13;;;;;;;;;1.33;1.33;;;;;1.89;64.50;98985.00;5030466;28;45383;-74
2021/12/03 04:42:39;;;;;;;;;2.00;1.00;;;;;1.87;65.32;98979.81;5031521;28;45385;-73
2021/12/03 04:45:10;;;;;;;;;3.33;1.33;;;;;1.87;66.20;98992.81;5030699;28;45524;-74
2021/12/03 04:47:36;;;;;;;;;1.00;1.00;;;;;1.87;65.74;98986.75;5032424;28;45592;-73
2021/12/03 04:50:04;;;;;;;;;1.33;1.33;;;;;1.85;67.39;99004.94;5030016;28;47486;-74
2021/12/03 04:52:30;;;;;;;;;2.67;1.00;;;;;1.86;66.53;99000.63;5033396;28;45346;-74
2021/12/03 04:54:55;;;;;;;;;1.67;1.67;;;;;1.85;66.69;99004.09;5028286;28;45539;-74
2021/12/03 04:57:21;;;;;;;;;1.67;0.33;;;;;1.83;67.47;99011.91;5028296;28;45489;-73
2021/12/03 04:59:46;;;;;;;;;0.33;0.33;;;;;1.82;68.37;99012.78;5030339;28;46535;-74
2021/12/03 05:02:12;;;;;;;;;2.00;1.00;;;;;1.78;67.60;99024.06;5027840;28;45437;-74
2021/12/03 05:04:38;;;;;;;;;0.67;0.67;;;;;1.74;67.64;99018.03;5028936;28;45541;-74
2021/12/03 05:07:27;;;;;;;;;1.67;1.00;;;;;1.75;65.95;99021.50;5034131;28;45407;-74
2021/12/03 05:09:52;;;;;;;;;1.00;1.00;;;;;1.70;66.68;99037.09;5028162;28;45613;-74
2021/12/03 05:12:18;;;;;;;;;1.67;1.00;;;;;1.67;66.78;99031.09;5032236;28;45431;-74
2021/12/03 05:14:43;;;;;;;;;1.00;1.00;;;;;1.66;68.60;99035.41;5043277;28;45345;-74
2021/12/03 05:17:08;;;;;;;;;2.00;2.00;;;;;1.68;66.34;99043.19;5034283;28;45365;-74
2021/12/03 05:19:34;;;;;;;;;1.67;1.00;;;;;1.67;67.07;99050.13;5027963;28;46692;-74
2021/12/03 05:21:59;;;;;;;;;3.67;1.00;;;;;1.68;67.37;99076.97;5034103;28;45276;-74
2021/12/03 05:24:25;;;;;;;;;3.67;3.67;;;;;1.65;67.04;99071.81;5029381;28;45455;-74
2021/12/03 05:26:50;;;;;;;;;2.00;2.00;;;;;1.64;66.83;99081.34;5033032;28;45655;-74
2021/12/03 05:29:17;;;;;;;;;0.00;0.00;;;;;1.61;68.40;99075.28;5030114;28;46284;-74
2021/12/03 05:31:43;;;;;;;;;1.33;1.00;;;;;1.60;67.14;99082.22;5032449;28;45493;-74
2021/12/03 05:34:12;;;;;;;;;1.00;1.00;;;;;1.56;68.97;99072.69;5030041;28;45544;-74
2021/12/03 05:36:38;;;;;;;;;0.00;0.00;;;;;1.56;68.46;99079.63;5024756;28;45310;-74
2021/12/03 05:39:04;;;;;;;;;1.00;1.00;;;;;1.53;68.95;99101.28;5031236;28;45413;-74
2021/12/03 05:41:30;;;;;;;;;4.00;3.67;;;;;1.51;69.27;99095.22;5029112;28;45478;-74
2021/12/03 05:43:55;;;;;;;;;1.00;1.00;;;;;1.48;69.70;99103.06;5031882;28;45516;-74
2021/12/03 05:46:20;;;;;;;;;4.33;1.67;;;;;1.48;68.89;99110.84;5031289;28;45406;-74
2021/12/03 05:48:46;;;;;;;;;3.33;3.33;;;;;1.46;69.56;99122.09;5030001;28;47068;-74
2021/12/03 05:51:11;;;;;;;;;4.00;4.00;;;;;1.47;69.11;99131.63;5027305;28;45445;-73
2021/12/03 05:53:37;;;;;;;;;6.00;4.33;;;;;1.47;70.37;99121.25;5024264;28;45509;-74
2021/12/03 05:56:02;;;;;;;;;1.00;1.00;;;;;1.47;69.86;99134.22;5024557;28;45489;-73
2021/12/03 05:58:28;;;;;;;;;1.00;1.00;;;;;1.48;69.86;99141.16;5033401;28;45646;-73
2021/12/03 06:00:53;;;;;;;;;1.00;1.00;;;;;1.49;69.14;99141.16;5026662;28;45441;-74
2021/12/03 06:03:19;;;;;;;;;2.00;2.00;;;;;1.47;70.28;99140.28;5033105;28;45322;-74
2021/12/03 06:05:44;;;;;;;;;5.00;2.00;;;;;1.47;70.54;99149.81;5027822;28;45329;-74
2021/12/03 06:08:10;;;;;;;;;3.33;3.33;;;;;1.46;71.65;99148.09;5034664;28;46378;-73
2021/12/03 06:10:36;;;;;;;;;2.00;2.00;;;;;1.45;71.19;99156.75;5030389;28;45394;-74
2021/12/03 06:13:02;;;;;;;;;5.33;4.00;;;;;1.45;71.30;99152.41;5052060;28;45389;-74
2021/12/03 06:15:28;;;;;;;;;4.00;4.00;;;;;1.48;71.15;99159.34;5029854;28;45425;-74
2021/12/03 06:17:55;;;;;;;;;4.33;3.33;;;;;1.50;71.59;99168.84;5035817;28;45672;-74
2021/12/03 06:20:20;;;;;;;;;4.00;4.00;;;;;1.52;71.41;99177.47;5029021;28;45567;-74
2021/12/03 06:22:47;;;;;;;;;5.67;4.33;;;;;1.53;71.54;99174.00;5036571;28;45472;-74
2021/12/03 06:25:14;;;;;;;;;5.00;5.00;;;;;1.56;71.47;99180.94;5029988;28;45543;-74
2021/12/03 06:27:41;;;;;;;;;5.33;5.33;;;;;1.57;71.58;99183.53;5034833;28;46869;-74
2021/12/03 06:30:10;;;;;;;;;2.00;2.00;;;;;1.57;71.79;99196.53;5030333;28;45282;-74
2021/12/03 06:32:36;;;;;;;;;1.67;1.00;;;;;1.55;70.47;99198.25;5036042;28;45440;-74
2021/12/03 06:35:05;;;;;;;;;1.67;1.67;;;;;1.55;71.38;99198.25;5029767;28;45585;-74
2021/12/03 06:37:31;;;;;;;;;4.67;3.00;;;;;1.56;71.13;99204.31;5032130;28;45380;-74
2021/12/03 06:39:56;;;;;;;;;2.33;2.33;;;;;1.55;71.01;99205.19;5031417;28;45345;-74
2021/12/03 06:42:22;;;;;;;;;3.67;2.00;;;;;1.53;71.29;99204.31;5032690;28;45368;-74
2021/12/03 06:44:47;;;;;;;;;2.00;2.00;;;;;1.52;70.88;99213.84;5031852;28;45210;-73
2021/12/03 06:47:13;;;;;;;;;4.33;3.33;;;;;1.52;71.67;99211.25;5031294;28;46011;-74
2021/12/03 06:49:38;;;;;;;;;10.00;9.00;;;;;1.53;71.88;99212.13;5037947;28;46090;-73
2021/12/03 06:52:07;;;;;;;;;5.00;3.33;;;;;1.58;71.22;99218.19;5066259;28;45318;-75
2021/12/03 06:54:35;;;;;;;;;7.00;6.00;;;;;1.60;72.35;99229.44;5033180;28;45889;-75
2021/12/03 06:57:04;;;;;;;;;3.67;2.00;;;;;1.58;71.21;99223.38;5026695;28;45427;-74
2021/12/03 06:59:29;;;;;;;;;7.33;4.67;;;;;1.57;72.25;99225.09;5032563;28;45350;-74
2021/12/03 07:01:54;;;;;;;;;3.00;1.00;;;;;1.57;71.99;99232.91;5026869;28;45318;-74
2021/12/03 07:04:21;;;;;;;;;2.67;2.67;;;;;1.54;72.20;99245.03;5027922;28;45365;-74
2021/12/03 07:06:47;;;;;;;;;6.00;4.33;;;;;1.50;71.70;99244.19;5033171;28;46669;-73
2021/12/03 07:09:13;;;;;;;;;5.00;4.00;;;;;1.46;71.95;99245.06;5032240;28;45374;-75
2021/12/03 07:11:38;;;;;;;;;2.00;2.00;;;;;1.42;71.72;99242.47;5029518;28;45412;-74
2021/12/03 07:14:05;;;;;;;;;4.00;4.00;;;;;1.41;72.26;99251.97;5032428;28;45603;-75
2021/12/03 07:16:31;;;;;;;;;6.67;6.67;;;;;1.40;72.11;99256.31;5031582;28;45713;-73
2021/12/03 07:18:57;;;;;;;;;5.67;5.00;;;;;1.36;72.04;99253.72;5032763;28;45449;-74
2021/12/03 07:21:25;;;;;;;;;2.00;1.33;;;;;1.34;72.23;99258.06;5028906;28;45284;-74
2021/12/03 07:23:51;;;;;;;;;9.00;5.00;;;;;1.37;72.46;99263.22;5031526;28;45586;-75
2021/12/03 07:26:22;;;;;;;;;8.00;8.00;;;;;1.38;72.83;99270.16;5030515;28;46029;-75
2021/12/03 07:28:47;;;;;;;;;5.33;5.33;;;;;1.40;73.58;99261.50;5031924;28;45573;-53
2021/12/03 07:31:13;;;;;;;;;6.67;6.67;;;;;1.61;72.67;99267.53;5026982;28;45472;-67
2021/12/03 07:33:40;;;;;;;;;8.67;4.33;;;;;1.69;72.33;99257.97;5032084;28;45493;-67
2021/12/03 07:36:06;;;;;;;;;6.00;6.00;;;;;1.72;72.43;99264.03;5029460;28;45509;-68
2021/12/03 07:38:33;;;;;;;;;6.33;2.00;;;;;1.75;73.75;99273.56;5033889;28;45465;-68
2021/12/03 07:40:58;;;;;;;;;12.00;8.33;;;;;1.74;72.80;99271.84;5031084;28;45542;-68
2021/12/03 07:43:24;;;;;;;;;8.67;6.33;;;;;1.73;71.87;99275.31;5035217;28;45511;-68
2021/12/03 07:45:50;;;;;;;;;8.00;8.00;;;;;1.70;72.50;99281.38;5031665;28;45522;-68
2021/12/03 07:48:16;;;;;;;;;5.67;5.67;;;;;1.70;72.26;99281.38;5035303;28;45496;-68
2021/12/03 07:50:42;;;;;;;;;8.00;6.00;;;;;1.74;72.64;99287.44;5030078;28;45428;-68
2021/12/03 07:53:13;;;;;;;;;9.00;7.00;;;;;1.78;72.49;99291.75;5035050;28;45599;-68
2021/12/03 07:55:39;;;;;;;;;7.67;7.33;;;;;1.81;73.29;99288.28;5046798;28;47170;-67
2021/12/03 07:58:05;;;;;;;;;8.33;6.33;;;;;1.81;73.33;99293.50;5034413;28;45320;-68
2021/12/03 08:00:30;;;;;;;;;5.00;3.00;;;;;1.84;73.50;99291.75;5044441;28;45519;-67
2021/12/03 08:02:56;;;;;;;;;13.67;9.00;;;;;1.82;73.55;99309.09;5032594;28;45515;-68
2021/12/03 08:05:21;;;;;;;;;8.67;8.67;;;;;1.80;73.67;99309.94;5028028;28;46478;-67
2021/12/03 08:07:49;;;;;;;;;7.33;7.00;;;;;1.79;73.25;99322.06;5034126;28;45373;-68
2021/12/03 08:10:15;;;;;;;;;9.00;9.00;;;;;1.80;73.15;99307.34;5043005;28;45458;-67
2021/12/03 08:12:42;;;;;;;;;13.67;11.67;;;;;1.84;73.31;99314.28;5034368;28;45481;-68
2021/12/03 08:15:08;;;;;;;;;6.67;6.00;;;;;1.90;72.96;99311.66;5033352;28;48565;-69
2021/12/03 08:17:34;;;;;;;;;9.00;9.00;;;;;1.94;73.12;99311.66;5034626;28;45492;-68
2021/12/03 08:20:00;;;;;;;;;10.67;7.00;;;;;2.01;73.00;99317.72;5028258;28;45456;-69
2021/12/03 08:22:25;;;;;;;;;7.00;6.33;;;;;2.06;72.60;99318.53;5034817;28;45507;-69
2021/12/03 08:24:50;;;;;;;;;9.00;9.00;;;;;2.12;72.31;99313.34;5028148;28;45952;-70
2021/12/03 08:27:16;;;;;;;;;9.67;7.33;;;;;2.21;73.06;99321.09;5032476;28;45481;-70
2021/12/03 08:29:42;;;;;;;;;7.33;7.33;;;;;2.26;72.58;99324.53;5028911;28;45548;-70
2021/12/03 08:32:10;;;;;;;;;8.33;3.67;;;;;2.31;71.94;99333.22;5030427;28;45346;-70
2021/12/03 08:34:35;;;;;;;;;14.67;9.00;;;;;2.36;72.61;99336.63;5029000;28;46089;-70
2021/12/03 08:37:02;;;;;;;;;10.33;10.00;;;;;2.46;72.98;99329.69;5031313;28;45665;-70
2021/12/03 08:39:28;;;;;;;;;7.00;7.00;;;;;2.56;72.61;99339.16;5030737;28;45583;-70
2021/12/03 08:41:54;;;;;;;;;7.00;7.00;;;;;2.62;72.28;99346.94;5031615;28;45392;-70
2021/12/03 08:44:19;;;;;;;;;15.00;14.33;;;;;2.69;72.34;99352.97;5029601;28;46406;-70
2021/12/03 08:46:46;;;;;;;;;10.33;10.00;;;;;2.73;71.66;99352.09;5030848;28;45515;-70
2021/12/03 08:49:28;;;;;;;;;12.67;8.67;;;;;2.80;71.60;99359.88;5031568;28;45432;-70
2021/12/03 08:52:20;;;;;;;;;9.67;9.67;;;;;2.89;71.50;99356.34;5033217;28;45409;-70
2021/12/03 08:54:53;;;;;;;;;7.33;7.33;;;;;2.96;71.22;99368.47;5031116;28;45567;-70
2021/12/03 08:57:25;;;;;;;;;11.67;10.00;;;;;2.99;69.92;99364.97;5028673;28;45402;-69
2021/12/03 08:59:53;;;;;;;;;10.33;10.00;;;;;2.99;70.48;99373.66;5030690;28;45447;-70
2021/12/03 09:02:19;;;;;;;;;13.67;11.00;;;;;2.99;70.48;99389.28;5031545;28;45385;-70
2021/12/03 09:04:44;;;;;;;;;9.33;7.67;;;;;3.00;71.40;99393.63;5029638;28;45364;-71
2021/12/03 09:07:10;;;;;;;;;9.33;9.33;;;;;2.99;71.07;99391.03;5034038;28;45564;-70
2021/12/03 09:09:36;;;;;;;;;16.00;10.33;;;;;2.97;70.79;99393.63;5031218;28;45498;-69
2021/12/03 09:12:02;;;;;;;;;15.00;10.00;;;;;2.93;70.13;99391.91;5029053;28;45493;-69
2021/12/03 09:14:35;;;;;;;;;11.67;10.33;;;;;2.90;70.77;99406.69;5028940;28;45975;-70
2021/12/03 09:17:22;;;;;;;;;12.00;11.67;;;;;2.87;71.57;99412.75;5029509;28;45381;-69
2021/12/03 09:25:01;;;;;;;;;10.00;10.00;;;;;2.96;71.12;99419.69;5027422;28;46088;-69
2021/12/03 09:27:28;;;;;;;;;12.00;11.00;;;;;2.99;71.12;99419.66;5032642;28;45376;-71
2021/12/03 09:29:54;;;;;;;;;14.67;7.67;;;;;3.02;69.98;99423.09;5029049;28;45306;-70
2021/12/03 09:32:23;;;;;;;;;10.00;8.67;;;;;3.04;69.62;99423.97;5027598;28;45393;-70
2021/12/03 09:34:49;;;;;;;;;12.67;11.00;;;;;3.09;70.60;99426.56;5025538;28;45517;-69
2021/12/03 09:37:14;;;;;;;;;11.33;9.33;;;;;3.18;70.21;99423.91;5029670;28;45504;-70
2021/12/03 09:39:42;;;;;;;;;15.00;13.67;;;;;3.23;70.31;99431.69;5031391;28;45416;-70
2021/12/03 09:42:08;;;;;;;;;10.00;10.00;;;;;3.29;70.61;99429.91;5030774;28;45470;-70
2021/12/03 09:44:38;;;;;;;;;11.00;11.00;;;;;3.38;70.94;99429.84;5028245;28;46024;-68
2021/12/03 09:47:05;;;;;;;;;8.67;7.33;;;;;3.44;70.33;99424.59;5032134;28;45456;-68
2021/12/03 09:49:40;;;;;;;;;9.00;8.00;;;;;3.54;70.03;99430.59;5030660;28;45590;-69
2021/12/03 09:54:48;;;;;;;;;17.67;14.67;;;;;3.71;69.84;99414.84;5030036;28;45530;-70
2021/12/03 09:57:20;;;;;;;;;10.33;9.67;;;;;3.76;69.54;99408.72;5027240;28;45526;-70
2021/12/03 10:13:39;;;;;;;;;10.67;7.00;;;;;3.90;68.11;99408.59;5032802;28;45342;-68
2021/12/03 10:18:52;;;;;;;;;6.67;6.00;;;;;3.86;68.58;99397.31;5032854;28;45475;-68
2021/12/03 10:33:39;;;;;;;;;8.67;7.00;;;;;4.07;67.12;99385.84;5015868;28;45438;-67
2021/12/03 10:47:09;;;;;;;;;6.00;5.00;;;;;4.08;68.50;99390.16;5030335;28;45543;-70
2021/12/03 11:36:01;;;;;;;;;14.33;12.67;;;;;5.56;66.63;99375.19;5027851;28;45496;-68
2021/12/03 12:10:24;;;;;;;;;13.67;9.67;;;;;6.17;63.79;99375.06;5032787;28;45583;-71
2021/12/03 12:32:56;;;;;;;;;10.67;8.33;;;;;6.38;61.23;99363.31;5033834;28;45311;-68
2021/12/03 13:38:44;;;;;;;;;9.00;5.67;;;;;6.86;60.96;99279.38;5033947;28;45319;-69
2021/12/03 14:10:18;;;;;;;;;8.00;8.00;;;;;6.30;59.27;99311.13;5031616;28;45579;-69
2021/12/03 14:29:02;;;;;;;;;8.00;8.00;;;;;6.39;59.35;99272.53;5031536;28;45444;-69
2021/12/03 14:35:49;;;;;;;;;7.00;5.00;;;;;6.36;58.91;99267.38;5035327;28;45385;-69
2021/12/03 14:45:40;;;;;;;;;7.33;7.33;;;;;6.25;58.93;99251.88;5036681;28;45452;-68
2021/12/03 14:55:56;;;;;;;;;9.33;6.00;;;;;6.11;59.51;99277.47;5036253;28;45415;-69
2021/12/03 14:58:29;;;;;;;;;7.33;7.33;;;;;6.07;59.15;99275.78;5036643;28;45310;-69
2021/12/03 15:01:00;;;;;;;;;7.33;7.33;;;;;6.02;59.21;99272.44;5035802;28;45543;-69
2021/12/03 15:09:21;;;;;;;;;17.67;13.00;;;;;5.86;59.21;99270.06;5035487;28;45513;-69
2021/12/03 15:30:24;;;;;;;;;12.00;9.00;;;;;5.73;60.00;99292.09;5025257;28;45744;-70
2021/12/03 15:38:21;;;;;;;;;9.33;8.67;;;;;5.67;60.31;99305.31;5035401;28;45441;-69
2021/12/03 16:04:46;;;;;;;;;10.00;10.00;;;;;5.28;60.95;99319.03;5034637;28;45440;-69
2021/12/03 16:47:06;;;;;;;;;16.33;14.67;;;;;4.47;64.29;99348.88;5021270;28;46041;-68
2021/12/03 16:52:27;;;;;;;;;17.67;15.00;;;;;4.35;65.14;99342.06;5014649;28;45495;-69
2021/12/03 16:54:55;;;;;;;;;22.67;18.33;;;;;4.32;65.19;99347.31;5033947;28;45354;-69
2021/12/03 16:57:28;;;;;;;;;22.33;19.33;;;;;4.32;65.11;99346.44;5033947;28;45419;-69
2021/12/03 16:59:53;;;;;;;;;12.33;12.00;;;;;4.32;65.40;99354.28;5032706;28;45444;-69
2021/12/03 17:02:25;;;;;;;;;21.33;16.00;;;;;4.31;65.43;99342.13;5032304;28;45391;-67
2021/12/03 17:48:20;;;;;;;;;32.00;29.33;;;;;4.10;66.56;99359.72;5032583;28;45429;-69
2021/12/03 17:50:38;;;;;;;;;27.33;23.67;;;;;4.08;66.57;99358.00;5028277;28;45496;-72
2021/12/03 17:58:26;;;;;;;;;26.33;23.33;;;;;4.02;66.75;99347.66;5030965;28;45639;-69
2021/12/03 18:09:05;;;;;;;;;37.67;31.67;;;;;3.93;67.14;99345.13;5034562;28;45447;-76
2021/12/03 18:12:22;;;;;;;;;33.67;30.00;;;;;3.87;67.04;99351.25;5035818;28;46505;-76
2021/12/03 18:51:48;;;;;;;;;35.67;31.00;;;;;3.90;67.01;99339.94;5030370;28;45454;-75
2021/12/03 18:57:06;;;;;;;;;32.00;27.00;;;;;3.92;66.67;99357.28;5035049;28;45486;-75
2021/12/03 18:59:36;;;;;;;;;42.67;39.33;;;;;3.94;66.51;99352.06;5049712;28;45580;-75
2021/12/03 19:02:05;;;;;;;;;23.00;19.00;;;;;3.95;66.85;99339.00;5032668;28;45548;-75
2021/12/03 19:04:38;;;;;;;;;40.00;31.33;;;;;3.96;66.55;99326.84;5027356;28;47481;-75
2021/12/03 19:07:08;;;;;;;;;41.00;28.00;;;;;3.95;66.88;99320.75;5035741;28;45385;-75
2021/12/03 19:09:43;;;;;;;;;33.00;29.00;;;;;3.94;66.85;99333.81;5030459;28;45470;-76
2021/12/03 19:12:12;;;;;;;;;39.67;36.00;;;;;3.92;66.74;99336.44;5032361;28;45358;-75
2021/12/03 19:14:39;;;;;;;;;33.00;28.00;;;;;3.91;66.95;99329.47;5033284;28;46889;-75
2021/12/03 19:17:06;;;;;;;;;32.67;29.67;;;;;3.90;66.72;99327.75;5031931;28;45464;-76
2021/12/03 19:19:36;;;;;;;;;28.67;26.33;;;;;3.90;66.56;99319.94;5034784;28;45419;-75
2021/12/03 19:22:04;;;;;;;;;32.00;30.33;;;;;3.90;66.61;99311.25;5034847;28;45336;-75
2021/12/03 19:24:30;;;;;;;;;29.67;26.00;;;;;3.91;66.86;99307.75;5034669;28;46509;-75
2021/12/03 19:26:56;;;;;;;;;31.67;30.67;;;;;3.94;66.80;99305.13;5034077;28;45420;-76